Time;durP1;ratioP1;P1;durP2;ratioP2;P2;SDS_P1;SDS_P2;PMS_P1;PMS_P2;Temp;Humidity;BMP_temperature;BMP_pressure;BME280_temperature;BME280_humidity;BME280_pressure;Samples;Min_cycle;Max_cycle;Signal;HPM_P1;HPM_P2
2022/11/17 00:04:47;;;;;;;8.48;5.28;;;12.80;87.90;;;;;;10982871;32;20057;-73
2022/11/17 00:10:49;;;;;;;9.85;6.45;;;12.90;87.90;;;;;;10979286;32;20022;-73
2022/11/17 00:16:51;;;;;;;10.75;5.72;;;12.70;87.90;;;;;;10982602;32;20022;-73
2022/11/17 00:22:53;;;;;;;8.65;6.00;;;12.50;88.00;;;;;;11002705;27;20053;-75
2022/11/17 00:29:00;;;;;;;9.68;5.25;;;12.20;88.10;;;;;;11020288;32;20014;-75
2022/11/17 00:35:06;;;;;;;8.13;4.87;;;12.10;88.30;;;;;;11020071;32;20423;-75
2022/11/17 00:41:09;;;;;;;7.90;5.68;;;12.00;88.40;;;;;;11019671;32;20338;-75
2022/11/17 00:47:11;;;;;;;10.15;6.47;;;11.90;88.40;;;;;;11015133;32;20432;-75
2022/11/17 00:53:13;;;;;;;8.93;5.80;;;12.20;88.50;;;;;;11018126;32;20018;-75
2022/11/17 00:59:15;;;;;;;11.12;6.28;;;12.40;88.30;;;;;;11018980;32;20056;-75
2022/11/17 01:05:17;;;;;;;8.68;5.50;;;12.30;88.00;;;;;;11018850;32;20306;-75
2022/11/17 01:11:19;;;;;;;7.07;4.65;;;12.40;88.30;;;;;;11018821;32;20014;-75
2022/11/17 01:17:21;;;;;;;7.62;4.97;;;12.20;88.10;;;;;;11018500;32;20054;-75
2022/11/17 01:23:23;;;;;;;6.87;4.25;;;12.20;88.30;;;;;;11018368;32;20022;-73
2022/11/17 01:29:25;;;;;;;11.50;4.70;;;12.20;88.20;;;;;;11018186;32;20018;-73
2022/11/17 01:35:28;;;;;;;5.40;3.15;;;12.10;88.30;;;;;;11004594;32;20022;-73
2022/11/17 01:41:30;;;;;;;12.27;7.20;;;12.00;88.20;;;;;;11004304;32;20014;-73
2022/11/17 01:47:46;;;;;;;29.85;14.02;;;11.90;88.10;;;;;;11017952;32;20385;-73
2022/11/17 01:53:50;;;;;;;15.98;8.77;;;11.80;88.20;;;;;;11017666;32;20036;-75
2022/11/17 01:59:59;;;;;;;11.23;9.00;;;11.70;88.30;;;;;;11014215;32;20058;-77
2022/11/17 02:06:27;;;;;;;30.90;15.40;;;11.70;88.20;;;;;;11017538;32;20354;-76
2022/11/17 02:12:31;;;;;;;15.80;10.70;;;11.60;87.90;;;;;;11017354;32;20018;-75
2022/11/17 02:18:33;;;;;;;12.80;8.57;;;11.50;88.00;;;;;;11016484;32;20052;-76
2022/11/17 02:24:53;;;;;;;13.05;7.35;;;11.40;88.00;;;;;;11024732;32;20018;-75
2022/11/17 02:31:01;;;;;;;10.35;5.87;;;11.40;87.90;;;;;;11011015;32;20015;-74
2022/11/17 02:37:09;;;;;;;14.85;8.63;;;11.30;88.00;;;;;;11024359;32;20049;-74
2022/11/17 02:49:49;;;;;;;14.15;7.68;;;11.40;87.90;;;;;;11024019;32;20010;-73
2022/11/17 02:55:52;;;;;;;10.27;6.43;;;11.30;87.80;;;;;;11023549;32;20048;-74
2022/11/17 03:02:32;;;;;;;17.65;10.48;;;11.30;87.90;;;;;;11020022;32;20034;-73
2022/11/17 03:08:48;;;;;;;16.00;9.25;;;11.30;87.70;;;;;;11023193;32;20010;-76
2022/11/17 03:15:03;;;;;;;11.63;7.65;;;11.20;87.70;;;;;;11022945;32;20033;-76
2022/11/17 03:21:17;;;;;;;17.33;11.68;;;11.20;87.80;;;;;;11022657;32;20444;-77
2022/11/17 03:27:22;;;;;;;10.45;7.62;;;11.20;87.50;;;;;;11022480;32;20030;-76
2022/11/17 03:33:26;;;;;;;16.95;10.95;;;11.10;87.70;;;;;;11021470;32;20014;-75
2022/11/17 03:39:43;;;;;;;9.10;5.87;;;11.20;87.70;;;;;;11021956;32;20045;-75
2022/11/17 03:45:52;;;;;;;8.57;5.80;;;11.20;87.70;;;;;;11021639;32;20056;-75
2022/11/17 03:51:55;;;;;;;8.20;4.90;;;11.20;87.70;;;;;;11017183;32;20022;-75
2022/11/17 03:58:08;;;;;;;7.90;4.57;;;11.30;87.80;;;;;;11021350;32;20275;-75
2022/11/17 04:04:14;;;;;;;10.48;6.32;;;11.40;87.70;;;;;;11007619;32;20022;-75
2022/11/17 04:10:22;;;;;;;7.78;5.10;;;11.30;87.60;;;;;;11007407;32;20022;-75
2022/11/17 04:16:25;;;;;;;16.87;8.52;;;11.20;87.70;;;;;;11020726;32;20018;-75
2022/11/17 04:22:28;;;;;;;9.80;4.60;;;11.20;87.70;;;;;;11020145;32;20018;-77
2022/11/17 04:28:37;;;;;;;9.15;6.22;;;10.90;87.70;;;;;;11006612;32;20056;-75
2022/11/17 04:34:41;;;;;;;9.07;6.25;;;10.90;87.90;;;;;;11020287;32;20412;-76
2022/11/17 04:41:52;;;;;;;5.47;3.60;;;11.00;87.90;;;;;;11019807;32;20022;-75
2022/11/17 04:47:05;;;;;;;4.93;2.97;;;10.90;87.80;;;;;;11019432;32;20096;-75
2022/11/17 04:53:07;;;;;;;7.93;4.05;;;10.90;87.80;;;;;;11019269;32;20049;-75
2022/11/17 04:59:10;;;;;;;6.10;3.80;;;11.00;88.00;;;;;;11019176;32;20018;-75
2022/11/17 05:05:12;;;;;;;4.97;3.10;;;11.10;87.80;;;;;;11018976;32;20066;-74
2022/11/17 05:17:36;;;;;;;9.55;5.78;;;11.20;87.80;;;;;;11018672;32;20056;-73
2022/11/17 05:23:53;;;;;;;12.73;5.97;;;11.10;87.70;;;;;;11017402;32;20018;-74
2022/11/17 05:29:55;;;;;;;7.50;5.00;;;10.90;87.50;;;;;;11018149;32;20030;-76
2022/11/17 05:35:58;;;;;;;8.40;6.25;;;10.60;87.40;;;;;;11017989;32;20022;-76
2022/11/17 05:42:00;;;;;;;10.45;6.95;;;10.50;87.50;;;;;;11017831;32;20214;-75
2022/11/17 05:48:02;;;;;;;4.62;3.05;;;10.40;87.50;;;;;;11017808;32;20037;-76
2022/11/17 05:54:04;;;;;;;7.82;5.28;;;10.50;87.70;;;;;;11016999;32;20053;-75
2022/11/17 06:00:07;;;;;;;4.95;3.28;;;10.60;87.70;;;;;;11017489;32;20014;-75
2022/11/17 06:06:15;;;;;;;6.60;4.50;;;10.80;87.60;;;;;;11017387;32;20014;-75
2022/11/17 06:12:17;;;;;;;9.68;6.00;;;11.00;87.80;;;;;;11017152;32;20338;-74
2022/11/17 06:18:24;;;;;;;6.45;4.18;;;11.20;87.10;;;;;;11017342;32;20026;-73
2022/11/17 06:24:27;;;;;;;8.05;5.95;;;10.90;87.10;;;;;;11017124;32;20097;-74
2022/11/17 06:30:44;;;;;;;6.32;3.80;;;10.80;87.40;;;;;;11017099;32;20381;-73
2022/11/17 06:36:46;;;;;;;9.75;6.78;;;10.80;87.30;;;;;;11017076;32;20026;-73
2022/11/17 06:49:25;;;;;;;6.53;4.47;;;10.90;87.50;;;;;;10937300;32;20049;-73
2022/11/17 06:55:28;;;;;;;7.12;5.12;;;10.90;87.40;;;;;;10936863;32;20090;-74
2022/11/17 07:01:30;;;;;;;9.23;5.85;;;11.10;87.40;;;;;;10925670;32;20031;-75
2022/11/17 07:07:33;;;;;;;10.35;6.68;;;11.00;87.20;;;;;;10933733;32;20062;-76
2022/11/17 07:13:36;;;;;;;9.77;5.78;;;11.30;87.60;;;;;;10934629;32;20047;-76
2022/11/17 07:19:38;;;;;;;9.68;5.28;;;11.40;87.00;;;;;;10940723;32;20068;-75
2022/11/17 07:25:40;;;;;;;7.20;4.45;;;11.30;87.30;;;;;;10984297;32;20022;-75
2022/11/17 07:31:42;;;;;;;5.90;4.65;;;11.70;87.20;;;;;;10984256;32;20077;-74
2022/11/17 07:37:44;;;;;;;9.45;6.03;;;11.90;87.00;;;;;;11016951;32;20030;-73
2022/11/17 07:43:47;;;;;;;7.47;4.87;;;11.90;86.60;;;;;;11002042;32;20030;-73
2022/11/17 07:49:52;;;;;;;7.85;5.53;;;12.10;86.80;;;;;;11021363;32;20042;-73
2022/11/17 07:55:55;;;;;;;8.98;5.97;;;12.10;86.60;;;;;;11021694;32;20030;-73
2022/11/17 08:01:57;;;;;;;10.30;6.80;;;11.90;86.70;;;;;;11021581;32;20053;-73
2022/11/17 08:07:59;;;;;;;12.80;6.87;;;12.00;86.90;;;;;;11021357;32;20014;-73
2022/11/17 08:14:01;;;;;;;10.20;6.00;;;12.20;87.10;;;;;;11020997;32;20314;-73
2022/11/17 08:20:04;;;;;;;9.05;5.93;;;12.60;86.80;;;;;;11020367;32;20045;-73
2022/11/17 08:26:10;;;;;;;7.68;5.37;;;12.50;86.20;;;;;;10422032;32;16913780;-74
2022/11/17 08:32:12;;;;;;;11.40;7.18;;;12.20;86.70;;;;;;10937228;32;20446;-73
2022/11/17 08:38:15;;;;;;;9.65;6.25;;;12.00;86.90;;;;;;10940725;32;20034;-74
2022/11/17 08:44:17;;;;;;;11.32;6.70;;;12.00;87.10;;;;;;10940778;32;20166;-73
2022/11/17 08:50:19;;;;;;;8.80;5.10;;;12.00;87.40;;;;;;10940808;32;20069;-73
2022/11/17 08:56:22;;;;;;;9.68;6.30;;;12.10;87.20;;;;;;10943469;32;20027;-73
2022/11/17 09:02:25;;;;;;;9.00;5.80;;;12.20;87.30;;;;;;10941250;32;20042;-73
2022/11/17 09:08:27;;;;;;;8.50;5.87;;;12.10;87.10;;;;;;10943175;32;20027;-73
2022/11/17 09:14:30;;;;;;;9.88;6.82;;;12.10;87.60;;;;;;10943190;32;20355;-73
2022/11/17 09:20:50;;;;;;;11.50;6.82;;;12.20;87.40;;;;;;10927201;32;20057;-73
2022/11/17 09:26:53;;;;;;;12.98;6.95;;;12.10;87.50;;;;;;10942729;32;20418;-73
2022/11/17 09:32:57;;;;;;;10.13;5.55;;;12.30;87.80;;;;;;10941671;32;20284;-73
2022/11/17 09:38:59;;;;;;;9.98;7.30;;;12.20;87.50;;;;;;10942361;32;20019;-73
2022/11/17 09:45:17;;;;;;;10.90;7.45;;;12.10;87.60;;;;;;10939284;32;20023;-73
2022/11/17 09:51:22;;;;;;;26.40;20.12;;;12.10;87.90;;;;;;10941373;32;20053;-73
2022/11/17 09:57:42;;;;;;;22.67;14.70;;;12.10;88.00;;;;;;10941748;32;20019;-75
2022/11/17 10:03:46;;;;;;;13.77;8.80;;;12.20;88.10;;;;;;10941272;32;20343;-74
2022/11/17 10:09:51;;;;;;;22.33;16.40;;;12.20;88.20;;;;;;10939557;32;20035;-78
2022/11/17 10:16:03;;;;;;;15.93;11.15;;;12.40;88.20;;;;;;10941347;32;20062;-74
2022/11/17 10:22:07;;;;;;;17.37;12.35;;;12.50;87.90;;;;;;10940423;32;20027;-74
2022/11/17 10:28:35;;;;;;;15.55;10.07;;;12.70;88.10;;;;;;10941081;32;20396;-75
2022/11/17 10:34:47;;;;;;;14.07;10.15;;;12.90;88.00;;;;;;10936268;32;20034;-74
2022/11/17 10:40:51;;;;;;;12.20;8.75;;;13.10;88.40;;;;;;10938638;32;20317;-74
2022/11/17 10:46:58;;;;;;;11.55;7.93;;;13.30;88.10;;;;;;10947768;32;20352;-74
2022/11/17 10:53:24;;;;;;;13.13;8.38;;;13.50;88.30;;;;;;10948929;32;20023;-74
2022/11/17 10:59:49;;;;;;;18.62;14.98;;;13.90;88.40;;;;;;10947404;32;20014;-74
2022/11/17 11:06:19;;;;;;;21.37;15.98;;;14.30;87.50;;;;;;10947353;32;20453;-74
2022/11/17 11:12:48;;;;;;;17.20;12.63;;;14.20;87.50;;;;;;10792581;32;20032;-74
2022/11/17 11:18:52;;;;;;;20.08;14.23;;;14.40;87.60;;;;;;10793681;33;20028;-75
2022/11/17 11:25:24;;;;;;;16.58;11.15;;;14.30;87.40;;;;;;10793516;33;20051;-74
2022/11/17 11:31:26;;;;;;;21.20;13.65;;;14.30;87.50;;;;;;10793433;33;20055;-74
2022/11/17 11:38:02;;;;;;;15.10;9.98;;;14.50;87.40;;;;;;10794418;33;20394;-74
2022/11/17 11:44:24;;;;;;;15.82;10.48;;;14.70;87.20;;;;;;10792507;33;20058;-75
2022/11/17 11:50:42;;;;;;;23.75;17.95;;;14.80;87.20;;;;;;10942938;32;20023;-73
2022/11/17 11:56:52;;;;;;;17.92;14.52;;;14.80;86.90;;;;;;10941160;32;20077;-73
2022/11/17 12:03:25;;;;;;;23.10;19.02;;;14.70;86.50;;;;;;10945322;32;20045;-72
2022/11/17 12:09:43;;;;;;;16.45;10.70;;;14.60;86.80;;;;;;10791251;33;20048;-73
2022/11/17 12:15:45;;;;;;;14.77;10.98;;;14.50;87.00;;;;;;10791564;33;20055;-73
2022/11/17 12:21:53;;;;;;;14.95;9.48;;;14.50;87.40;;;;;;10790162;33;20357;-73
2022/11/17 12:27:55;;;;;;;13.90;8.27;;;14.70;87.70;;;;;;10791673;33;20062;-73
2022/11/17 12:33:59;;;;;;;15.75;11.07;;;14.80;87.40;;;;;;10792599;33;20109;-73
2022/11/17 12:40:03;;;;;;;17.00;10.35;;;14.70;87.70;;;;;;10788399;33;20031;-73
2022/11/17 12:46:27;;;;;;;10.35;7.70;;;15.00;88.00;;;;;;10886794;32;20031;-73
2022/11/17 12:52:56;;;;;;;16.40;11.20;;;15.20;87.70;;;;;;10906003;32;20042;-72
2022/11/17 12:59:26;;;;;;;14.15;9.65;;;15.10;87.80;;;;;;10905825;32;20027;-73
2022/11/17 13:05:29;;;;;;;14.85;8.95;;;15.00;87.70;;;;;;10905528;32;20380;-73
2022/11/17 13:11:32;;;;;;;11.27;6.90;;;15.00;88.00;;;;;;10905192;32;20042;-73
2022/11/17 13:17:49;;;;;;;12.82;6.95;;;15.00;88.00;;;;;;10891805;32;20011;-73
2022/11/17 13:23:57;;;;;;;9.63;6.62;;;14.90;88.20;;;;;;10889202;32;20324;-73
2022/11/17 13:30:23;;;;;;;8.40;5.55;;;14.80;88.50;;;;;;10900709;32;20024;-73
2022/11/17 13:36:26;;;;;;;10.15;5.90;;;14.80;88.50;;;;;;10904894;32;20422;-74
2022/11/17 13:42:33;;;;;;;23.67;13.57;;;14.90;88.60;;;;;;10904576;32;20023;-74
2022/11/17 13:48:39;;;;;;;16.58;10.88;;;15.00;88.70;;;;;;10904355;32;20328;-74
2022/11/17 13:54:44;;;;;;;12.15;8.88;;;14.90;88.90;;;;;;10905224;32;20039;-74
2022/11/17 14:00:56;;;;;;;12.20;7.87;;;14.90;88.80;;;;;;10904373;32;20019;-74
2022/11/17 14:07:01;;;;;;;12.37;7.30;;;14.80;88.90;;;;;;10887905;32;20023;-74
2022/11/17 14:20:25;;;;;;;12.90;7.65;;;15.00;88.80;;;;;;10907791;32;20057;-74
2022/11/17 14:33:01;;;;;;;13.65;7.85;;;15.00;88.80;;;;;;10870746;32;20024;-74
2022/11/17 14:39:45;;;;;;;15.95;8.77;;;14.80;88.80;;;;;;10865995;32;20067;-73
2022/11/17 14:45:48;;;;;;;11.65;7.30;;;14.70;89.20;;;;;;11081263;27;20063;-74
2022/11/17 14:51:52;;;;;;;11.55;6.72;;;14.80;89.10;;;;;;10868079;32;20031;-74
2022/11/17 14:58:26;;;;;;;14.70;9.98;;;14.60;89.00;;;;;;10867491;32;20058;-74
2022/11/17 15:04:28;;;;;;;12.57;7.55;;;14.50;89.40;;;;;;10866744;32;20104;-74
2022/11/17 15:10:31;;;;;;;12.68;9.50;;;14.50;89.20;;;;;;10865515;32;20402;-74
2022/11/17 15:16:33;;;;;;;17.85;12.32;;;14.50;89.30;;;;;;10863501;32;20050;-74
2022/11/17 15:22:35;;;;;;;11.95;8.00;;;14.50;89.50;;;;;;10866965;32;20035;-74
2022/11/17 15:28:38;;;;;;;11.38;7.80;;;14.50;89.40;;;;;;10867428;32;20036;-74
2022/11/17 15:34:40;;;;;;;12.30;8.65;;;14.60;89.40;;;;;;10864169;32;20394;-74
2022/11/17 15:40:42;;;;;;;12.23;8.18;;;14.70;89.20;;;;;;10866782;32;20031;-74
2022/11/17 15:46:44;;;;;;;10.10;7.10;;;14.70;89.20;;;;;;10865953;32;20032;-74
2022/11/17 15:52:46;;;;;;;10.43;7.22;;;14.60;89.10;;;;;;10866385;32;20023;-74
2022/11/17 15:58:54;;;;;;;12.63;8.82;;;14.60;89.10;;;;;;10864870;32;20023;-75
2022/11/17 16:04:56;;;;;;;16.15;10.23;;;14.60;89.10;;;;;;10863629;32;20023;-74
2022/11/17 16:10:58;;;;;;;25.85;11.07;;;14.60;89.20;;;;;;10865902;32;20298;-74
2022/11/17 16:17:00;;;;;;;13.98;8.23;;;14.60;89.10;;;;;;10865708;32;20031;-74
2022/11/17 16:23:02;;;;;;;16.48;10.80;;;14.50;88.90;;;;;;10865280;32;20035;-74
2022/11/17 16:29:06;;;;;;;19.85;9.80;;;14.40;89.10;;;;;;10865534;32;20399;-74
2022/11/17 16:35:08;;;;;;;11.40;9.15;;;14.40;89.10;;;;;;10865231;32;20055;-74
2022/11/17 16:41:10;;;;;;;16.42;11.63;;;14.30;89.10;;;;;;10863565;32;20417;-75
2022/11/17 16:47:12;;;;;;;22.35;14.87;;;14.40;89.10;;;;;;10864038;32;20032;-74
2022/11/17 16:53:20;;;;;;;21.80;13.60;;;14.40;89.00;;;;;;10847021;32;20032;-74
2022/11/17 16:59:22;;;;;;;20.95;13.48;;;14.40;89.00;;;;;;10825759;32;20379;-74
2022/11/17 17:05:25;;;;;;;18.98;12.20;;;14.50;88.90;;;;;;10819650;33;20074;-74
2022/11/17 17:11:30;;;;;;;15.45;10.80;;;14.30;88.90;;;;;;10830360;32;20454;-74
2022/11/17 17:17:32;;;;;;;20.48;12.57;;;14.30;89.00;;;;;;10857848;32;20031;-74
2022/11/17 17:23:34;;;;;;;23.95;17.17;;;14.30;88.90;;;;;;10859263;32;20346;-74
2022/11/17 17:29:36;;;;;;;21.37;14.85;;;14.40;88.90;;;;;;10859132;32;20028;-74
2022/11/17 17:35:39;;;;;;;18.62;13.32;;;14.50;88.80;;;;;;10860231;32;20083;-74
2022/11/17 17:41:43;;;;;;;17.05;11.23;;;14.50;88.80;;;;;;10858293;32;20064;-74
2022/11/17 17:47:45;;;;;;;18.00;13.15;;;14.30;88.70;;;;;;10858796;32;20334;-74
2022/11/17 17:53:50;;;;;;;21.33;13.52;;;14.20;88.90;;;;;;10859204;32;20035;-74
2022/11/17 17:59:52;;;;;;;24.45;17.52;;;14.20;88.90;;;;;;10858512;32;20028;-74
2022/11/17 18:05:58;;;;;;;20.92;13.95;;;14.40;88.90;;;;;;10854639;32;20050;-74
2022/11/17 18:12:00;;;;;;;22.23;15.30;;;14.20;88.80;;;;;;10858225;32;20039;-74
2022/11/17 18:18:02;;;;;;;24.08;17.92;;;14.20;89.00;;;;;;10846562;32;20023;-74
2022/11/17 18:24:04;;;;;;;27.52;20.30;;;14.30;89.10;;;;;;10853849;32;20115;-74
2022/11/17 18:30:07;;;;;;;21.90;13.77;;;14.40;89.10;;;;;;10857631;32;20066;-74
2022/11/17 18:36:10;;;;;;;25.33;19.73;;;14.40;88.90;;;;;;10858962;32;20212;-74
2022/11/17 18:42:12;;;;;;;19.62;13.60;;;14.20;88.90;;;;;;10857514;32;20027;-74
2022/11/17 18:48:14;;;;;;;22.27;13.95;;;14.20;88.90;;;;;;10845667;32;20032;-74
2022/11/17 18:54:17;;;;;;;25.80;18.65;;;14.20;88.90;;;;;;10858574;32;20032;-74
2022/11/17 19:00:21;;;;;;;31.05;23.42;;;14.20;89.00;;;;;;10857311;32;20343;-74
2022/11/17 19:06:24;;;;;;;34.67;26.15;;;14.20;88.90;;;;;;10862729;32;20280;-74
2022/11/17 19:12:26;;;;;;;28.02;19.80;;;14.00;88.80;;;;;;10864616;32;20032;-75
2022/11/17 19:18:29;;;;;;;26.00;17.60;;;13.90;89.40;;;;;;10858650;32;20027;-75
2022/11/17 19:24:31;;;;;;;19.48;14.40;;;14.00;89.20;;;;;;10850984;32;20330;-74
2022/11/17 19:30:34;;;;;;;29.65;21.25;;;14.10;89.20;;;;;;10863918;32;20074;-74
2022/11/17 19:36:36;;;;;;;21.58;15.38;;;14.20;89.30;;;;;;10836293;32;20032;-77
2022/11/17 19:42:40;;;;;;;20.42;15.40;;;14.10;89.10;;;;;;10862290;32;20054;-77
2022/11/17 19:48:43;;;;;;;14.63;10.85;;;14.00;89.20;;;;;;10862523;32;20062;-77
2022/11/17 19:54:46;;;;;;;18.02;14.38;;;14.10;89.30;;;;;;10849596;32;20039;-77
2022/11/17 20:00:48;;;;;;;22.73;16.27;;;14.10;89.30;;;;;;10861719;32;20043;-76
2022/11/17 20:06:51;;;;;;;23.60;16.23;;;14.20;89.20;;;;;;10861460;32;20028;-76
2022/11/17 20:12:54;;;;;;;23.15;18.25;;;14.40;88.90;;;;;;10862016;32;20032;-75
2022/11/17 20:18:59;;;;;;;21.08;15.05;;;14.50;89.10;;;;;;10861181;32;20054;-73
2022/11/17 20:25:04;;;;;;;20.10;15.18;;;14.40;89.40;;;;;;10860855;32;20315;-75
2022/11/17 20:31:09;;;;;;;19.30;13.98;;;14.50;89.40;;;;;;10862083;32;20074;-75
2022/11/17 20:37:11;;;;;;;22.35;15.55;;;14.40;89.10;;;;;;10859748;32;20036;-75
2022/11/17 20:43:14;;;;;;;21.73;14.23;;;14.30;89.10;;;;;;10860307;32;20390;-75
2022/11/17 20:49:16;;;;;;;18.33;12.52;;;14.50;89.10;;;;;;10845922;32;20376;-76
2022/11/17 20:55:18;;;;;;;19.25;15.57;;;14.50;89.10;;;;;;10859815;32;20028;-76
2022/11/17 21:01:22;;;;;;;17.37;12.48;;;14.30;88.90;;;;;;10858930;32;20040;-76
2022/11/17 21:07:24;;;;;;;19.27;13.62;;;14.40;89.00;;;;;;10860820;32;20035;-76
2022/11/17 21:13:28;;;;;;;19.10;13.13;;;14.40;88.90;;;;;;10860031;32;20035;-76
2022/11/17 21:19:30;;;;;;;12.45;9.82;;;14.50;89.00;;;;;;10859631;32;20024;-76
2022/11/17 21:25:35;;;;;;;14.98;10.65;;;14.30;88.70;;;;;;10859405;32;20054;-76
2022/11/17 21:31:37;;;;;;;19.08;13.38;;;14.10;89.00;;;;;;10842744;32;20334;-76
2022/11/17 21:37:39;;;;;;;21.05;14.32;;;14.20;89.30;;;;;;10855656;32;20067;-76
2022/11/17 21:43:43;;;;;;;23.40;14.30;;;14.40;89.00;;;;;;10861489;32;20419;-75
2022/11/17 21:49:45;;;;;;;16.98;11.65;;;14.50;88.80;;;;;;10860166;32;20035;-75
2022/11/17 21:55:47;;;;;;;18.70;12.32;;;14.50;88.50;;;;;;10862542;32;20388;-76
2022/11/17 22:01:50;;;;;;;17.75;13.18;;;14.30;88.60;;;;;;10861816;32;20031;-75
2022/11/17 22:07:53;;;;;;;16.30;11.45;;;14.40;88.90;;;;;;10862886;32;20297;-75
2022/11/17 22:13:56;;;;;;;19.77;13.60;;;14.40;88.60;;;;;;10862102;32;20330;-76
2022/11/17 22:19:58;;;;;;;20.05;12.73;;;14.40;88.80;;;;;;10861703;32;20027;-76
2022/11/17 22:26:03;;;;;;;15.73;12.05;;;14.50;89.00;;;;;;10862623;32;20058;-76
2022/11/17 22:32:05;;;;;;;17.52;11.55;;;14.50;89.10;;;;;;10861178;32;20028;-73
2022/11/17 22:38:07;;;;;;;19.65;15.00;;;14.30;89.00;;;;;;10865271;32;20517;-74
2022/11/17 22:44:12;;;;;;;19.70;13.75;;;14.30;89.20;;;;;;10868430;32;20070;-73
2022/11/17 22:50:15;;;;;;;17.00;12.30;;;14.40;89.30;;;;;;11018910;26;20049;-75
2022/11/17 22:56:17;;;;;;;15.55;12.35;;;14.40;89.20;;;;;;11024023;32;20049;-76
2022/11/17 23:02:19;;;;;;;16.37;12.07;;;14.20;89.30;;;;;;11023843;32;20076;-77
2022/11/17 23:08:22;;;;;;;20.37;15.07;;;14.10;89.40;;;;;;11023787;32;20049;-75
2022/11/17 23:14:24;;;;;;;15.02;10.35;;;14.20;89.50;;;;;;11023536;32;20023;-74
2022/11/17 23:20:27;;;;;;;21.67;14.85;;;14.30;89.20;;;;;;11009716;32;20030;-74
2022/11/17 23:26:30;;;;;;;13.82;9.75;;;14.30;89.20;;;;;;11009399;32;20046;-74
2022/11/17 23:32:32;;;;;;;23.83;12.55;;;14.40;89.10;;;;;;11022824;32;20022;-75
2022/11/17 23:38:34;;;;;;;16.40;10.13;;;14.40;88.90;;;;;;11022557;32;20428;-78
2022/11/17 23:44:36;;;;;;;20.37;11.48;;;14.40;89.10;;;;;;11022254;32;20030;-78
2022/11/17 23:50:38;;;;;;;13.48;8.43;;;14.30;89.10;;;;;;11021180;32;20037;-79
2022/11/17 23:56:41;;;;;;;18.05;11.57;;;14.20;89.00;;;;;;11021973;32;20026;-77
